createdAt,value
2023-02-13T00:04:09.899Z,14.10
2023-02-13T00:06:36.408Z,13.80
2023-02-13T00:09:04.680Z,15.23
2023-02-13T00:11:32.232Z,15.00
2023-02-13T00:13:58.761Z,15.32
2023-02-13T00:16:25.237Z,14.63
2023-02-13T00:18:51.744Z,13.43
2023-02-13T00:21:22.813Z,14.50
2023-02-13T00:23:49.536Z,14.68
2023-02-13T00:26:18.560Z,10.85
2023-02-13T00:28:46.201Z,11.35
2023-02-13T00:31:16.392Z,15.35
2023-02-13T00:33:44.237Z,13.55
2023-02-13T00:36:14.609Z,14.47
2023-02-13T00:38:42.151Z,13.05
2023-02-13T00:41:10.618Z,13.45
2023-02-13T00:43:39.607Z,14.27
2023-02-13T00:46:08.066Z,14.05
2023-02-13T00:48:35.468Z,13.18
2023-02-13T00:51:03.007Z,11.43
2023-02-13T00:53:29.539Z,13.25
2023-02-13T00:55:56.394Z,12.73
2023-02-13T00:58:23.758Z,12.57
2023-02-13T01:00:52.701Z,13.88
2023-02-13T01:03:20.478Z,14.75
2023-02-13T01:05:48.322Z,14.00
2023-02-13T01:08:18.053Z,13.50
2023-02-13T01:10:46.852Z,12.63
2023-02-13T01:13:15.719Z,12.80
2023-02-13T01:15:43.819Z,13.18
2023-02-13T01:18:18.471Z,18.65
2023-02-13T01:21:03.542Z,14.15
2023-02-13T01:23:32.267Z,13.85
2023-02-13T01:28:27.077Z,13.03
2023-02-13T01:30:56.335Z,17.98
2023-02-13T01:33:26.698Z,10.90
2023-02-13T01:35:54.089Z,12.60
2023-02-13T01:38:22.342Z,14.48
2023-02-13T01:40:53.825Z,15.32
2023-02-13T01:43:23.570Z,15.68
2023-02-13T01:45:54.805Z,14.85
2023-02-13T01:48:25.129Z,15.88
2023-02-13T01:50:54.101Z,13.10
2023-02-13T01:53:32.708Z,21.10
2023-02-13T01:58:36.096Z,13.77
2023-02-13T02:01:04.162Z,15.98
2023-02-13T02:03:36.820Z,12.85
2023-02-13T02:06:04.345Z,10.93
2023-02-13T02:08:31.864Z,11.77
2023-02-13T02:11:05.451Z,11.48
2023-02-13T02:13:31.918Z,11.18
2023-02-13T02:15:58.394Z,9.18
2023-02-13T02:18:30.764Z,9.27
2023-02-13T02:21:15.597Z,9.73
2023-02-13T02:24:00.396Z,12.80
2023-02-13T02:26:48.261Z,14.00
2023-02-13T02:29:41.441Z,12.68
2023-02-13T02:32:22.713Z,13.45
2023-02-13T02:35:06.120Z,12.55
2023-02-13T02:37:51.660Z,13.98
2023-02-13T02:40:38.720Z,12.95
2023-02-13T02:43:15.766Z,12.52
2023-02-13T02:46:18.205Z,13.52
2023-02-13T02:49:23.700Z,14.20
2023-02-13T02:52:03.363Z,16.45
2023-02-13T02:55:09.744Z,14.55
2023-02-13T02:58:01.247Z,15.68
2023-02-13T03:00:48.465Z,13.07
2023-02-13T03:03:41.332Z,12.18
2023-02-13T03:06:37.391Z,12.55
2023-02-13T03:09:30.057Z,12.02
2023-02-13T03:12:15.880Z,11.57
2023-02-13T03:14:46.662Z,11.02
2023-02-13T03:17:35.763Z,15.23
2023-02-13T03:20:40.666Z,9.32
2023-02-13T03:23:31.918Z,10.75
2023-02-13T03:26:33.338Z,11.50
2023-02-13T03:29:35.446Z,10.13
2023-02-13T03:32:09.526Z,11.10
2023-02-13T03:35:06.205Z,10.80
2023-02-13T03:37:54.644Z,13.70
2023-02-13T03:40:36.968Z,10.60
2023-02-13T03:43:06.922Z,11.95
2023-02-13T03:45:54.369Z,9.52
2023-02-13T03:48:44.429Z,11.52
2023-02-13T03:51:15.663Z,11.50
2023-02-13T03:53:45.031Z,9.68
2023-02-13T03:56:33.425Z,9.48
2023-02-13T03:59:17.220Z,10.50
2023-02-13T04:01:54.117Z,12.50
2023-02-13T04:04:31.683Z,10.15
2023-02-13T04:07:03.891Z,9.65
2023-02-13T04:09:34.846Z,9.45
2023-02-13T04:12:19.558Z,8.27
2023-02-13T04:15:04.352Z,9.88
2023-02-13T04:17:36.281Z,10.60
2023-02-13T04:20:03.430Z,15.80
2023-02-13T04:22:33.338Z,9.65
2023-02-13T04:25:00.230Z,9.15
2023-02-13T04:27:28.396Z,12.15
2023-02-13T04:29:54.849Z,9.05
2023-02-13T04:32:21.367Z,11.23
2023-02-13T04:34:48.147Z,10.90
2023-02-13T04:37:16.185Z,9.23
2023-02-13T04:39:43.801Z,8.68
2023-02-13T04:42:11.381Z,11.07
2023-02-13T04:44:38.220Z,9.27
2023-02-13T04:47:05.458Z,9.20
2023-02-13T04:49:31.916Z,8.98
2023-02-13T04:51:58.458Z,8.07
2023-02-13T04:54:26.038Z,9.45
2023-02-13T04:56:54.401Z,9.90
2023-02-13T04:59:20.896Z,8.80
2023-02-13T05:01:47.484Z,10.25
2023-02-13T05:04:16.438Z,9.65
2023-02-13T05:06:43.834Z,10.43
2023-02-13T05:09:10.888Z,9.00
2023-02-13T05:11:37.450Z,10.55
2023-02-13T05:14:03.960Z,11.18
2023-02-13T05:16:30.551Z,9.13
2023-02-13T05:18:57.463Z,8.90
2023-02-13T05:21:43.691Z,8.32
2023-02-13T05:24:10.245Z,10.38
2023-02-13T05:26:36.719Z,7.68
2023-02-13T05:29:19.031Z,11.07
2023-02-13T05:31:56.963Z,9.95
2023-02-13T05:34:25.542Z,7.75
2023-02-13T05:36:52.521Z,8.65
2023-02-13T05:39:19.598Z,6.57
2023-02-13T05:41:47.324Z,7.15
2023-02-13T05:44:15.476Z,12.57
2023-02-13T05:46:43.713Z,9.05
2023-02-13T05:49:11.618Z,10.07
2023-02-13T05:51:38.149Z,11.07
2023-02-13T05:54:05.619Z,11.82
2023-02-13T05:56:32.180Z,15.65
2023-02-13T05:58:58.687Z,13.25
2023-02-13T06:01:27.379Z,14.75
2023-02-13T06:06:30.993Z,14.27
2023-02-13T06:09:06.382Z,13.55
2023-02-13T06:11:37.230Z,42.83
2023-02-13T06:14:04.917Z,27.92
2023-02-13T06:16:49.375Z,36.70
2023-02-13T06:19:16.662Z,23.25
2023-02-13T06:21:44.216Z,38.03
2023-02-13T06:24:12.429Z,70.85
2023-02-13T06:26:45.612Z,95.03
2023-02-13T06:29:13.033Z,47.80
2023-02-13T06:31:39.741Z,21.05
2023-02-13T06:34:06.680Z,21.70
2023-02-13T06:36:33.570Z,24.83
2023-02-13T06:39:01.096Z,15.40
2023-02-13T06:41:29.318Z,15.45
2023-02-13T06:43:57.358Z,13.80
2023-02-13T06:46:37.804Z,14.23
2023-02-13T06:49:04.552Z,12.90
2023-02-13T06:51:31.245Z,13.05
2023-02-13T06:53:58.145Z,14.93
2023-02-13T06:56:27.017Z,16.05
2023-02-13T06:58:53.525Z,15.82
2023-02-13T07:04:28.366Z,17.25
2023-02-13T07:07:10.282Z,12.38
2023-02-13T07:09:36.779Z,12.00
2023-02-13T07:12:04.802Z,14.45
2023-02-13T07:14:32.248Z,14.88
2023-02-13T07:16:58.741Z,14.05
2023-02-13T07:19:25.249Z,12.65
2023-02-13T07:21:51.853Z,17.17
2023-02-13T07:24:18.306Z,12.52
2023-02-13T07:26:44.833Z,16.60
2023-02-13T07:29:12.476Z,21.33
2023-02-13T07:31:39.962Z,18.58
2023-02-13T07:34:06.837Z,21.67
2023-02-13T07:36:33.397Z,34.35
2023-02-13T07:39:00.103Z,29.88
2023-02-13T07:41:27.166Z,24.90
2023-02-13T07:43:54.619Z,25.98
2023-02-13T07:46:24.196Z,26.67
2023-02-13T07:48:54.946Z,26.95
2023-02-13T07:51:25.221Z,26.63
2023-02-13T07:53:52.952Z,24.05
2023-02-13T07:56:19.514Z,23.50
2023-02-13T07:58:46.033Z,21.23
2023-02-13T08:01:17.067Z,16.95
2023-02-13T08:03:50.751Z,19.73
2023-02-13T08:06:19.434Z,18.25
2023-02-13T08:08:46.780Z,17.02
2023-02-13T08:11:53.005Z,15.80
2023-02-13T08:14:24.286Z,15.75
2023-02-13T08:17:03.864Z,16.45
2023-02-13T08:19:30.423Z,16.23
2023-02-13T08:21:57.162Z,16.15
2023-02-13T08:24:24.486Z,16.80
2023-02-13T08:26:51.074Z,17.90
2023-02-13T08:29:18.461Z,16.85
2023-02-13T08:31:45.292Z,15.25
2023-02-13T08:34:11.741Z,18.95
2023-02-13T08:36:38.279Z,13.88
2023-02-13T08:39:04.957Z,12.73
2023-02-13T08:41:31.388Z,15.80
2023-02-13T08:43:58.177Z,15.50
2023-02-13T08:46:24.796Z,12.50
2023-02-13T08:48:51.308Z,14.68
2023-02-13T08:51:18.559Z,11.82
2023-02-13T08:53:45.550Z,16.92
2023-02-13T08:56:12.090Z,16.63
2023-02-13T08:58:38.863Z,13.48
2023-02-13T09:01:07.234Z,12.23
2023-02-13T09:03:34.200Z,14.27
2023-02-13T09:06:10.017Z,17.75
2023-02-13T09:08:36.624Z,16.45
2023-02-13T09:11:14.710Z,14.68
2023-02-13T09:13:41.216Z,18.77
2023-02-13T09:16:17.213Z,22.67
2023-02-13T09:18:49.156Z,19.35
2023-02-13T09:21:17.390Z,21.08
2023-02-13T09:23:45.634Z,21.25
2023-02-13T09:26:14.416Z,21.15
2023-02-13T09:28:41.985Z,17.55
2023-02-13T09:31:10.172Z,17.55
2023-02-13T09:33:38.444Z,20.08
2023-02-13T09:36:07.131Z,18.65
2023-02-13T09:41:37.583Z,20.70
2023-02-13T09:44:34.068Z,20.38
2023-02-13T09:50:18.518Z,18.77
2023-02-13T09:52:50.749Z,21.88
2023-02-13T09:55:37.239Z,27.95
2023-02-13T09:58:31.047Z,22.65
2023-02-13T10:01:00.592Z,21.00
2023-02-13T10:03:34.937Z,20.65
2023-02-13T10:06:19.715Z,22.70
2023-02-13T10:08:58.911Z,26.13
2023-02-13T10:12:03.523Z,25.23
2023-02-13T10:14:48.921Z,27.23
2023-02-13T10:17:23.579Z,30.83
2023-02-13T10:20:13.539Z,25.77
2023-02-13T10:23:18.617Z,27.00
2023-02-13T10:26:20.299Z,30.27
2023-02-13T10:29:39.734Z,25.80
2023-02-13T10:32:10.674Z,24.98
2023-02-13T10:34:45.788Z,26.63
2023-02-13T10:37:19.131Z,29.58
2023-02-13T10:39:51.445Z,27.70
2023-02-13T10:42:38.535Z,29.70
2023-02-13T10:45:14.094Z,28.63
2023-02-13T10:48:18.794Z,22.50
2023-02-13T10:51:00.607Z,25.98
2023-02-13T10:53:57.865Z,24.85
2023-02-13T10:56:31.323Z,24.35
2023-02-13T10:59:25.748Z,25.70
2023-02-13T11:02:03.845Z,22.98
2023-02-13T11:04:30.756Z,22.10
2023-02-13T11:07:02.530Z,22.67
2023-02-13T11:09:33.003Z,25.15
2023-02-13T11:12:27.733Z,25.95
2023-02-13T11:15:26.401Z,24.67
2023-02-13T11:17:56.382Z,23.42
2023-02-13T11:20:41.263Z,24.55
2023-02-13T11:23:29.368Z,24.13
2023-02-13T11:26:21.078Z,20.75
2023-02-13T11:28:55.179Z,24.45
2023-02-13T11:31:43.047Z,22.13
2023-02-13T11:34:25.834Z,23.02
2023-02-13T11:36:54.851Z,25.38
2023-02-13T11:39:22.850Z,21.52
2023-02-13T11:41:53.487Z,21.83
2023-02-13T11:44:30.800Z,24.40
2023-02-13T11:47:07.903Z,25.57
2023-02-13T11:49:37.313Z,25.45
2023-02-13T11:52:07.321Z,24.90
2023-02-13T11:54:42.390Z,21.38
2023-02-13T11:57:22.494Z,26.35
2023-02-13T11:59:51.759Z,27.42
2023-02-13T12:02:24.071Z,25.35
2023-02-13T12:04:53.847Z,24.98
2023-02-13T12:07:41.404Z,26.13
2023-02-13T12:10:22.190Z,25.92
2023-02-13T12:13:21.648Z,23.83
2023-02-13T12:15:59.364Z,22.30
2023-02-13T12:18:35.633Z,24.88
2023-02-13T12:21:49.170Z,22.80
2023-02-13T12:24:18.701Z,23.67
2023-02-13T12:27:10.852Z,24.52
2023-02-13T12:29:56.134Z,23.58
2023-02-13T12:32:30.897Z,24.42
2023-02-13T12:35:32.589Z,24.50
2023-02-13T12:38:08.872Z,24.67
2023-02-13T12:40:58.386Z,23.58
2023-02-13T12:43:33.105Z,23.48
2023-02-13T12:46:09.344Z,22.63
2023-02-13T12:48:45.381Z,24.33
2023-02-13T12:51:45.698Z,26.10
2023-02-13T12:54:27.205Z,22.92
2023-02-13T12:57:02.653Z,24.30
2023-02-13T13:00:15.585Z,21.98
2023-02-13T13:02:51.741Z,25.90
2023-02-13T13:05:27.430Z,21.77
2023-02-13T13:08:35.648Z,24.83
2023-02-13T13:11:05.035Z,24.50
2023-02-13T13:13:49.775Z,26.45
2023-02-13T13:16:42.980Z,28.10
2023-02-13T13:19:24.937Z,27.67
2023-02-13T13:22:32.676Z,24.88
2023-02-13T13:25:08.145Z,24.30
2023-02-13T13:27:44.648Z,26.42
2023-02-13T13:30:14.178Z,27.90
2023-02-13T13:32:43.045Z,25.38
2023-02-13T13:35:14.905Z,27.35
2023-02-13T13:38:02.397Z,25.67
2023-02-13T13:40:34.627Z,24.58
2023-02-13T13:43:08.266Z,26.02
2023-02-13T13:45:50.111Z,26.67
2023-02-13T13:48:38.144Z,28.30
2023-02-13T13:51:07.436Z,27.45
2023-02-13T13:53:33.947Z,27.42
2023-02-13T13:56:04.707Z,26.33
2023-02-13T13:58:43.615Z,27.23
2023-02-13T14:01:30.660Z,29.27
2023-02-13T14:03:57.233Z,25.65
2023-02-13T14:06:48.440Z,22.08
2023-02-13T14:09:26.954Z,24.35
2023-02-13T14:11:58.507Z,29.15
2023-02-13T14:14:27.876Z,25.02
2023-02-13T14:17:15.992Z,28.30
2023-02-13T14:19:49.899Z,27.88
2023-02-13T14:22:19.275Z,27.83
2023-02-13T14:25:06.234Z,25.33
2023-02-13T14:27:39.293Z,26.10
2023-02-13T14:30:28.375Z,27.33
2023-02-13T14:32:55.367Z,29.77
2023-02-13T14:35:28.086Z,27.08
2023-02-13T14:37:59.488Z,30.23
2023-02-13T14:40:31.246Z,26.95
2023-02-13T14:43:33.020Z,28.83
2023-02-13T14:46:21.426Z,27.30
2023-02-13T14:48:56.907Z,26.45
2023-02-13T14:51:35.126Z,28.40
2023-02-13T14:54:07.479Z,33.20
2023-02-13T14:56:34.433Z,28.65
2023-02-13T14:59:18.707Z,33.95
2023-02-13T15:01:52.476Z,32.97
2023-02-13T15:04:30.116Z,32.80
2023-02-13T15:06:59.413Z,34.92
2023-02-13T15:09:45.096Z,40.63
2023-02-13T15:12:27.887Z,36.83
2023-02-13T15:14:55.077Z,35.63
2023-02-13T15:17:26.101Z,35.97
2023-02-13T15:19:56.248Z,40.97
2023-02-13T15:22:51.274Z,36.67
2023-02-13T15:25:29.944Z,39.60
2023-02-13T15:27:58.548Z,39.92
2023-02-13T15:30:27.892Z,41.80
2023-02-13T15:33:24.165Z,45.20
2023-02-13T15:36:03.865Z,42.33
2023-02-13T15:38:31.374Z,42.40
2023-02-13T15:41:04.864Z,42.33
2023-02-13T15:43:35.083Z,41.53
2023-02-13T15:46:08.466Z,39.88
2023-02-13T15:48:35.620Z,44.30
2023-02-13T15:51:02.997Z,43.28
2023-02-13T15:53:30.420Z,41.75
2023-02-13T15:56:00.054Z,45.03
2023-02-13T15:58:31.881Z,41.80
2023-02-13T16:01:06.348Z,43.60
2023-02-13T16:03:34.454Z,48.90
2023-02-13T16:06:01.477Z,40.72
2023-02-13T16:08:36.442Z,44.75
2023-02-13T16:11:39.792Z,48.25
2023-02-13T16:14:18.912Z,42.47
2023-02-13T16:16:56.802Z,44.80
2023-02-13T16:19:28.541Z,45.13
2023-02-13T16:21:58.113Z,46.08
2023-02-13T16:24:27.958Z,46.60
2023-02-13T16:26:55.439Z,43.20
2023-02-13T16:29:28.963Z,49.05
2023-02-13T16:32:05.881Z,45.67
2023-02-13T16:34:33.033Z,45.22
2023-02-13T16:36:59.965Z,44.35
2023-02-13T16:39:30.028Z,47.55
2023-02-13T16:42:01.094Z,42.97
2023-02-13T16:44:32.847Z,44.45
2023-02-13T16:47:06.185Z,48.45
2023-02-13T16:49:35.882Z,48.50
2023-02-13T16:52:22.791Z,43.83
2023-02-13T16:54:59.991Z,48.05
2023-02-13T16:57:31.895Z,46.97
2023-02-13T17:00:18.903Z,51.78
2023-02-13T17:02:47.340Z,44.88
2023-02-13T17:05:13.694Z,47.13
2023-02-13T17:08:07.647Z,42.97
2023-02-13T17:10:36.452Z,49.05
2023-02-13T17:13:13.473Z,43.13
2023-02-13T17:15:44.986Z,56.30
2023-02-13T17:18:11.409Z,48.90
2023-02-13T17:20:48.039Z,54.95
2023-02-13T17:23:18.238Z,50.33
2023-02-13T17:25:48.387Z,48.45
2023-02-13T17:28:21.078Z,50.25
2023-02-13T17:30:50.864Z,46.20
2023-02-13T17:33:24.311Z,50.97
2023-02-13T17:35:51.271Z,55.22
2023-02-13T17:38:18.726Z,51.42
2023-02-13T17:40:46.140Z,58.17
2023-02-13T17:43:14.506Z,51.17
2023-02-13T17:45:41.397Z,48.25
2023-02-13T17:48:08.427Z,52.60
2023-02-13T17:50:36.250Z,51.42
2023-02-13T17:53:07.881Z,53.45
2023-02-13T17:55:34.996Z,56.22
2023-02-13T17:58:01.813Z,54.28
2023-02-13T18:00:32.315Z,54.75
2023-02-13T18:03:00.690Z,53.08
2023-02-13T18:05:28.369Z,55.30
2023-02-13T18:07:56.480Z,52.60
2023-02-13T18:10:27.655Z,60.15
2023-02-13T18:12:56.644Z,72.30
2023-02-13T18:15:24.281Z,51.65
2023-02-13T18:17:50.851Z,50.35
2023-02-13T18:20:20.896Z,50.22
2023-02-13T18:22:50.581Z,49.65
2023-02-13T18:25:21.027Z,53.00
2023-02-13T18:27:48.888Z,45.50
2023-02-13T18:30:18.843Z,57.03
2023-02-13T18:32:47.224Z,58.42
2023-02-13T18:35:13.738Z,49.50
2023-02-13T18:37:40.298Z,54.92
2023-02-13T18:40:10.297Z,53.17
2023-02-13T18:42:36.856Z,48.70
2023-02-13T18:45:03.840Z,49.22
2023-02-13T18:47:31.374Z,48.97
2023-02-13T18:49:57.819Z,44.00
2023-02-13T18:52:24.357Z,42.95
2023-02-13T18:54:51.576Z,54.55
2023-02-13T18:57:18.600Z,48.38
2023-02-13T18:59:45.047Z,48.42
2023-02-13T19:02:11.585Z,41.92
2023-02-13T19:04:38.305Z,37.92
2023-02-13T19:07:04.900Z,42.97
2023-02-13T19:09:31.288Z,39.28
2023-02-13T19:11:57.919Z,41.22
2023-02-13T19:14:25.855Z,38.22
2023-02-13T19:19:19.531Z,39.95
2023-02-13T19:21:45.962Z,38.53
2023-02-13T19:24:15.301Z,39.83
2023-02-13T19:26:42.320Z,39.85
2023-02-13T19:29:08.752Z,37.15
2023-02-13T19:31:35.474Z,43.13
2023-02-13T19:34:02.643Z,41.17
2023-02-13T19:36:30.305Z,41.08
2023-02-13T19:38:59.387Z,36.95
2023-02-13T19:41:26.082Z,37.60
2023-02-13T19:43:56.334Z,35.88
2023-02-13T19:46:25.312Z,41.08
2023-02-13T19:48:52.617Z,31.20
2023-02-13T19:51:22.343Z,35.58
2023-02-13T19:53:49.049Z,29.05
2023-02-13T19:56:15.571Z,30.27
2023-02-13T19:58:43.173Z,33.28
2023-02-13T20:01:15.792Z,36.95
2023-02-13T20:03:43.823Z,32.28
2023-02-13T20:06:16.146Z,30.33
2023-02-13T20:08:43.941Z,31.55
2023-02-13T20:11:12.074Z,30.50
2023-02-13T20:13:39.196Z,31.15
2023-02-13T20:16:12.927Z,32.30
2023-02-13T20:18:39.916Z,30.02
2023-02-13T20:21:08.345Z,25.35
2023-02-13T20:23:35.985Z,28.70
2023-02-13T20:26:04.723Z,24.77
2023-02-13T20:30:58.174Z,27.02
2023-02-13T20:33:24.917Z,27.38
2023-02-13T20:35:51.365Z,27.05
2023-02-13T20:38:18.425Z,29.40
2023-02-13T20:40:44.953Z,29.65
2023-02-13T20:43:13.278Z,35.25
2023-02-13T20:45:41.101Z,31.20
2023-02-13T20:48:07.691Z,35.80
2023-02-13T20:50:34.097Z,34.55
2023-02-13T20:53:00.519Z,31.60
2023-02-13T20:55:27.112Z,38.40
2023-02-13T20:57:53.581Z,32.65
2023-02-13T21:00:20.309Z,34.00
2023-02-13T21:03:37.046Z,33.65
2023-02-13T21:06:03.714Z,32.60
2023-02-13T21:08:30.820Z,33.70
2023-02-13T21:11:02.460Z,34.00
2023-02-13T21:13:29.156Z,33.40
2023-02-13T21:16:13.770Z,29.55
2023-02-13T21:18:52.545Z,31.05
2023-02-13T21:21:20.382Z,35.70
2023-02-13T21:23:48.576Z,29.90
2023-02-13T21:26:17.097Z,30.88
2023-02-13T21:28:48.795Z,30.42
2023-02-13T21:31:18.695Z,31.83
2023-02-13T21:33:45.333Z,29.75
2023-02-13T21:36:12.816Z,25.30
2023-02-13T21:38:52.232Z,28.30
2023-02-13T21:41:19.532Z,28.00
2023-02-13T21:43:49.071Z,24.00
2023-02-13T21:46:21.321Z,30.63
2023-02-13T21:48:55.715Z,26.58
2023-02-13T21:51:24.004Z,24.25
2023-02-13T21:53:52.017Z,24.73
2023-02-13T21:56:21.087Z,24.00
2023-02-13T21:58:49.133Z,22.65
2023-02-13T22:01:26.638Z,24.95
2023-02-13T22:04:00.834Z,22.15
2023-02-13T22:06:29.082Z,21.83
2023-02-13T22:08:57.129Z,28.60
2023-02-13T22:11:24.253Z,23.45
2023-02-13T22:13:54.712Z,25.73
2023-02-13T22:16:21.284Z,22.98
2023-02-13T22:18:50.621Z,26.25
2023-02-13T22:21:21.890Z,26.25
2023-02-13T22:23:49.965Z,28.67
2023-02-13T22:26:22.163Z,25.27
2023-02-13T22:28:50.608Z,28.25
2023-02-13T22:31:38.150Z,25.95
2023-02-13T22:34:05.962Z,26.80
2023-02-13T22:36:34.563Z,30.20
2023-02-13T22:39:01.467Z,28.77
2023-02-13T22:41:28.091Z,27.35
2023-02-13T22:43:54.645Z,24.88
2023-02-13T22:46:27.199Z,24.95
2023-02-13T22:48:53.939Z,22.65
2023-02-13T22:51:27.697Z,23.23
2023-02-13T22:53:56.017Z,22.17
2023-02-13T22:56:23.672Z,22.20
2023-02-13T22:58:50.449Z,21.63
2023-02-13T23:01:20.987Z,18.92
2023-02-13T23:03:48.856Z,18.92
2023-02-13T23:06:34.937Z,18.83
2023-02-13T23:09:01.423Z,18.48
2023-02-13T23:11:48.678Z,19.95
2023-02-13T23:14:30.613Z,20.45
2023-02-13T23:17:15.797Z,21.05
2023-02-13T23:19:42.349Z,22.63
2023-02-13T23:22:12.439Z,22.90
2023-02-13T23:24:39.688Z,25.20
2023-02-13T23:27:06.213Z,25.80
2023-02-13T23:29:32.727Z,24.95
2023-02-13T23:31:59.372Z,24.13
2023-02-13T23:34:25.856Z,26.30
2023-02-13T23:36:52.328Z,28.25
2023-02-13T23:39:19.878Z,27.67
2023-02-13T23:41:47.411Z,25.63
2023-02-13T23:44:17.669Z,27.25
2023-02-13T23:46:44.984Z,27.48
2023-02-13T23:49:11.489Z,25.70
2023-02-13T23:51:38.014Z,32.10
2023-02-13T23:54:04.993Z,28.60
2023-02-13T23:56:31.537Z,31.40
2023-02-13T23:58:57.978Z,24.80
